createdAt,value
2018-01-23T00:00:17.453Z,6.17
2018-01-23T00:02:44.186Z,6.70
2018-01-23T00:05:10.859Z,5.70
2018-01-23T00:07:37.554Z,5.63
2018-01-23T00:10:04.285Z,5.70
2018-01-23T00:12:31.042Z,6.07
2018-01-23T00:14:57.760Z,6.37
2018-01-23T00:17:24.455Z,5.53
2018-01-23T00:19:51.329Z,5.83
2018-01-23T00:22:18.062Z,5.90
2018-01-23T00:24:44.767Z,6.30
2018-01-23T00:27:11.471Z,7.30
2018-01-23T00:29:38.140Z,6.40
2018-01-23T00:32:05.005Z,6.83
2018-01-23T00:34:31.722Z,6.00
2018-01-23T00:36:58.447Z,6.17
2018-01-23T00:39:25.655Z,6.77
2018-01-23T00:41:52.312Z,5.43
2018-01-23T00:44:19.017Z,7.20
2018-01-23T00:46:45.719Z,5.90
2018-01-23T00:49:12.439Z,5.60
2018-01-23T00:51:39.152Z,6.57
2018-01-23T00:54:06.081Z,5.50
2018-01-23T00:56:32.802Z,5.10
2018-01-23T00:58:59.512Z,5.57
2018-01-23T01:01:26.198Z,5.00
2018-01-23T01:03:52.883Z,5.87
2018-01-23T01:06:19.603Z,5.47
2018-01-23T01:08:46.285Z,4.70
2018-01-23T01:11:12.990Z,4.63
2018-01-23T01:13:39.717Z,5.07
2018-01-23T01:16:06.431Z,4.93
2018-01-23T01:18:33.160Z,5.20
2018-01-23T01:20:59.865Z,4.90
2018-01-23T01:23:26.574Z,4.83
2018-01-23T01:25:54.161Z,5.77
2018-01-23T01:28:20.882Z,4.47
2018-01-23T01:30:47.582Z,5.70
2018-01-23T01:33:14.319Z,4.60
2018-01-23T01:35:41.015Z,4.50
2018-01-23T01:38:07.732Z,4.63
2018-01-23T01:40:34.412Z,4.70
2018-01-23T01:43:01.105Z,4.23
2018-01-23T01:45:27.808Z,4.80
2018-01-23T01:47:54.508Z,4.87
2018-01-23T01:50:21.224Z,4.60
2018-01-23T01:52:47.925Z,4.57
2018-01-23T01:55:14.638Z,4.20
2018-01-23T01:57:41.341Z,5.67
2018-01-23T02:00:08.050Z,5.23
2018-01-23T02:02:34.880Z,4.97
2018-01-23T02:05:01.584Z,5.27
2018-01-23T02:07:28.273Z,5.30
2018-01-23T02:09:55.008Z,5.80
2018-01-23T02:12:21.698Z,5.90
2018-01-23T02:14:49.163Z,5.03
2018-01-23T02:17:15.873Z,4.87
2018-01-23T02:19:43.398Z,4.73
2018-01-23T02:22:10.163Z,5.37
2018-01-23T02:24:36.894Z,5.20
2018-01-23T02:27:03.602Z,5.53
2018-01-23T02:29:30.281Z,4.70
2018-01-23T02:31:57.063Z,5.80
2018-01-23T02:34:23.792Z,5.83
2018-01-23T02:36:50.542Z,6.50
2018-01-23T02:39:17.275Z,6.13
2018-01-23T02:41:43.981Z,5.77
2018-01-23T02:44:11.177Z,5.47
2018-01-23T02:46:37.973Z,5.60
2018-01-23T02:49:04.712Z,5.90
2018-01-23T02:51:31.445Z,5.57
2018-01-23T02:53:58.981Z,5.30
2018-01-23T02:56:25.674Z,5.60
2018-01-23T02:58:52.405Z,5.40
2018-01-23T03:01:19.442Z,4.40
2018-01-23T03:03:46.128Z,5.40
2018-01-23T03:06:12.836Z,4.87
2018-01-23T03:08:39.548Z,5.80
2018-01-23T03:11:06.248Z,4.33
2018-01-23T03:13:32.989Z,5.40
2018-01-23T03:15:59.693Z,5.00
2018-01-23T03:18:26.368Z,5.10
2018-01-23T03:20:53.054Z,5.17
2018-01-23T03:23:20.562Z,5.93
2018-01-23T03:25:47.268Z,5.73
2018-01-23T03:28:13.940Z,5.50
2018-01-23T03:30:40.659Z,4.50
2018-01-23T03:33:07.384Z,4.50
2018-01-23T03:35:34.053Z,5.03
2018-01-23T03:38:00.754Z,4.63
2018-01-23T03:40:27.437Z,3.70
2018-01-23T03:42:54.826Z,4.67
2018-01-23T03:45:22.251Z,3.83
2018-01-23T03:47:48.949Z,5.13
2018-01-23T03:50:15.673Z,5.70
2018-01-23T03:52:42.425Z,3.97
2018-01-23T03:55:09.517Z,5.73
2018-01-23T03:57:36.236Z,4.30
2018-01-23T04:00:02.930Z,4.63
2018-01-23T04:02:29.635Z,3.87
2018-01-23T04:04:56.351Z,4.40
2018-01-23T04:07:23.111Z,3.90
2018-01-23T04:09:49.822Z,5.47
2018-01-23T04:12:16.529Z,4.30
2018-01-23T04:14:43.333Z,3.93
2018-01-23T04:17:10.012Z,3.67
2018-01-23T04:19:36.782Z,4.00
2018-01-23T04:22:03.516Z,3.37
2018-01-23T04:24:30.269Z,3.70
2018-01-23T04:26:56.978Z,3.87
2018-01-23T04:29:23.739Z,4.07
2018-01-23T04:31:50.451Z,3.67
2018-01-23T04:34:17.141Z,3.80
2018-01-23T04:36:43.893Z,4.50
2018-01-23T04:39:10.579Z,3.50
2018-01-23T04:41:37.319Z,3.87
2018-01-23T04:44:04.274Z,3.13
2018-01-23T04:46:30.999Z,3.40
2018-01-23T04:48:57.714Z,3.67
2018-01-23T04:51:24.450Z,3.50
2018-01-23T04:53:51.179Z,3.37
2018-01-23T04:56:17.898Z,3.50
2018-01-23T04:58:44.595Z,2.90
2018-01-23T05:01:11.277Z,3.40
2018-01-23T05:03:38.016Z,3.00
2018-01-23T05:06:04.714Z,2.83
2018-01-23T05:08:31.426Z,3.03
2018-01-23T05:10:58.127Z,3.30
2018-01-23T05:13:24.927Z,3.50
2018-01-23T05:15:51.625Z,4.07
2018-01-23T05:18:18.500Z,3.90
2018-01-23T05:20:45.194Z,3.00
2018-01-23T05:23:11.966Z,3.43
2018-01-23T05:25:38.683Z,2.87
2018-01-23T05:28:05.384Z,3.47
2018-01-23T05:30:32.128Z,3.23
2018-01-23T05:32:58.832Z,3.17
2018-01-23T05:35:25.547Z,3.40
2018-01-23T05:37:52.245Z,3.67
2018-01-23T05:40:18.970Z,3.70
2018-01-23T05:42:45.699Z,5.00
2018-01-23T05:45:12.523Z,3.90
2018-01-23T05:47:39.478Z,3.57
2018-01-23T05:50:06.430Z,4.30
2018-01-23T05:52:33.293Z,5.17
2018-01-23T05:55:00.114Z,5.77
2018-01-23T05:57:27.315Z,4.67
2018-01-23T05:59:54.163Z,4.57
2018-01-23T06:02:21.868Z,4.17
2018-01-23T06:04:48.859Z,5.20
2018-01-23T06:07:15.616Z,4.00
2018-01-23T06:09:42.413Z,5.20
2018-01-23T06:12:09.166Z,4.17
2018-01-23T06:14:35.874Z,4.30
2018-01-23T06:17:05.060Z,4.97
2018-01-23T06:19:31.960Z,4.03
2018-01-23T06:21:59.307Z,4.40
2018-01-23T06:24:26.213Z,5.00
2018-01-23T06:26:52.921Z,4.30
2018-01-23T06:32:15.220Z,5.53
2018-01-23T06:34:41.925Z,5.10
2018-01-23T06:37:09.170Z,4.90
2018-01-23T06:39:36.014Z,4.67
2018-01-23T06:42:02.729Z,5.93
2018-01-23T06:44:29.443Z,4.43
2018-01-23T06:46:56.151Z,4.63
2018-01-23T06:49:23.259Z,5.77
2018-01-23T06:51:50.001Z,5.73
2018-01-23T06:54:16.941Z,5.10
2018-01-23T06:56:43.753Z,4.83
2018-01-23T06:59:12.137Z,5.60
2018-01-23T07:01:39.670Z,5.43
2018-01-23T07:04:08.141Z,4.50
2018-01-23T07:06:35.382Z,5.40
2018-01-23T07:09:02.165Z,4.40
2018-01-23T07:11:29.754Z,4.60
2018-01-23T07:16:47.852Z,4.50
2018-01-23T07:19:14.691Z,5.00
2018-01-23T07:21:43.801Z,3.73
2018-01-23T07:24:10.512Z,4.00
2018-01-23T07:26:37.943Z,4.20
2018-01-23T07:29:04.746Z,5.50
2018-01-23T07:31:32.337Z,4.50
2018-01-23T07:33:59.144Z,4.43
2018-01-23T07:36:25.874Z,4.50
2018-01-23T07:38:53.215Z,4.30
2018-01-23T07:41:20.091Z,4.60
2018-01-23T07:43:46.855Z,4.50
2018-01-23T07:46:13.563Z,4.00
2018-01-23T07:48:40.298Z,4.70
2018-01-23T07:51:07.010Z,3.70
2018-01-23T07:53:33.758Z,4.20
2018-01-23T07:56:00.486Z,4.43
2018-01-23T07:58:27.222Z,4.10
2018-01-23T08:00:53.920Z,4.40
2018-01-23T08:03:21.043Z,4.50
2018-01-23T08:05:47.733Z,3.73
2018-01-23T08:08:14.446Z,4.63
2018-01-23T08:10:41.163Z,4.40
2018-01-23T08:13:07.896Z,4.07
2018-01-23T08:15:34.666Z,4.40
2018-01-23T08:18:02.732Z,4.17
2018-01-23T08:20:29.414Z,3.40
2018-01-23T08:22:56.131Z,3.80
2018-01-23T08:25:22.893Z,4.87
2018-01-23T08:27:49.618Z,3.80
2018-01-23T08:30:16.623Z,3.47
2018-01-23T08:32:43.326Z,3.40
2018-01-23T08:35:10.019Z,3.80
2018-01-23T08:37:36.762Z,3.93
2018-01-23T08:40:03.593Z,3.73
2018-01-23T08:42:30.665Z,3.63
2018-01-23T08:45:00.100Z,3.83
2018-01-23T08:47:26.886Z,4.30
2018-01-23T08:49:53.618Z,3.67
2018-01-23T08:52:20.337Z,3.77
2018-01-23T08:54:47.054Z,3.13
2018-01-23T08:57:15.126Z,3.47
2018-01-23T08:59:41.888Z,3.90
2018-01-23T09:02:08.641Z,4.00
2018-01-23T09:04:37.995Z,5.10
2018-01-23T09:07:05.021Z,3.73
2018-01-23T09:09:31.759Z,4.10
2018-01-23T09:11:59.998Z,3.70
2018-01-23T09:14:26.842Z,5.03
2018-01-23T09:16:53.621Z,4.00
2018-01-23T09:19:20.338Z,3.83
2018-01-23T09:21:47.070Z,3.60
2018-01-23T09:24:13.804Z,4.40
2018-01-23T09:26:40.540Z,3.70
2018-01-23T09:29:07.360Z,3.50
2018-01-23T09:31:34.026Z,3.70
2018-01-23T09:34:00.892Z,3.93
2018-01-23T09:36:27.675Z,4.00
2018-01-23T09:38:54.463Z,4.37
2018-01-23T09:41:21.346Z,4.20
2018-01-23T09:43:48.075Z,4.17
2018-01-23T09:46:14.816Z,3.63
2018-01-23T09:48:41.525Z,3.60
2018-01-23T09:51:08.387Z,4.00
2018-01-23T09:53:35.129Z,4.07
2018-01-23T09:56:02.046Z,3.63
2018-01-23T09:58:28.741Z,4.00
2018-01-23T10:00:55.426Z,4.00
2018-01-23T10:03:22.405Z,4.63
2018-01-23T10:05:49.255Z,4.17
2018-01-23T10:08:15.973Z,3.87
2018-01-23T10:10:42.852Z,4.23
2018-01-23T10:13:09.592Z,4.23
2018-01-23T10:15:36.381Z,3.90
2018-01-23T10:18:04.227Z,3.93
2018-01-23T10:20:30.984Z,4.10
2018-01-23T10:22:57.805Z,4.20
2018-01-23T10:25:24.527Z,3.70
2018-01-23T10:27:51.288Z,4.07
2018-01-23T10:30:18.024Z,3.83
2018-01-23T10:32:45.576Z,3.40
2018-01-23T10:35:12.432Z,3.60
2018-01-23T10:37:39.240Z,3.70
2018-01-23T10:40:06.011Z,3.40
2018-01-23T10:42:32.716Z,3.70
2018-01-23T10:45:00.480Z,3.03
2018-01-23T10:47:27.270Z,3.93
2018-01-23T10:49:54.560Z,2.93
2018-01-23T10:52:21.302Z,3.80
2018-01-23T10:54:48.275Z,3.23
2018-01-23T10:57:14.998Z,3.57
2018-01-23T10:59:41.727Z,3.10
2018-01-23T11:02:08.789Z,2.73
2018-01-23T11:04:35.627Z,4.67
2018-01-23T11:07:02.322Z,3.90
2018-01-23T11:09:29.232Z,2.93
2018-01-23T11:11:56.054Z,3.43
2018-01-23T11:14:22.983Z,3.10
2018-01-23T11:16:49.789Z,3.20
2018-01-23T11:19:16.534Z,3.80
2018-01-23T11:21:43.793Z,4.00
2018-01-23T11:24:10.692Z,3.80
2018-01-23T11:26:37.941Z,2.87
2018-01-23T11:29:04.992Z,3.83
2018-01-23T11:31:31.715Z,3.83
2018-01-23T11:33:58.772Z,4.00
2018-01-23T11:36:25.457Z,3.50
2018-01-23T11:38:52.125Z,3.80
2018-01-23T11:41:18.869Z,3.90
2018-01-23T11:43:45.586Z,4.23
2018-01-23T11:46:14.370Z,3.87
2018-01-23T11:48:41.175Z,4.20
2018-01-23T11:51:07.922Z,3.70
2018-01-23T11:53:34.689Z,4.27
2018-01-23T11:56:01.403Z,3.77
2018-01-23T11:58:28.300Z,4.20
2018-01-23T12:00:55.020Z,4.10
2018-01-23T12:03:21.779Z,3.83
2018-01-23T12:05:48.924Z,4.60
2018-01-23T12:08:15.742Z,3.80
2018-01-23T12:10:42.598Z,4.00
2018-01-23T12:13:09.532Z,4.20
2018-01-23T12:15:36.289Z,4.47
2018-01-23T12:18:03.002Z,4.63
2018-01-23T12:20:30.472Z,4.17
2018-01-23T12:22:57.294Z,4.70
2018-01-23T12:25:24.100Z,4.50
2018-01-23T12:27:50.874Z,4.70
2018-01-23T12:30:19.540Z,4.20
2018-01-23T12:32:46.282Z,4.77
2018-01-23T12:35:12.986Z,4.77
2018-01-23T12:37:44.341Z,5.60
2018-01-23T12:40:15.829Z,4.90
2018-01-23T12:42:42.640Z,4.83
2018-01-23T12:48:00.621Z,5.13
2018-01-23T12:50:28.440Z,4.70
2018-01-23T12:52:56.193Z,4.10
2018-01-23T12:55:22.974Z,4.40
2018-01-23T12:57:49.728Z,3.97
2018-01-23T13:00:16.478Z,4.77
2018-01-23T13:02:43.193Z,4.60
2018-01-23T13:05:10.107Z,4.20
2018-01-23T13:07:36.780Z,4.40
2018-01-23T13:10:03.599Z,4.10
2018-01-23T13:12:30.415Z,4.80
2018-01-23T13:14:58.486Z,4.00
2018-01-23T13:17:25.291Z,3.97
2018-01-23T13:19:52.089Z,4.37
2018-01-23T13:22:18.953Z,4.87
2018-01-23T13:24:45.713Z,3.97
2018-01-23T13:27:13.606Z,3.67
2018-01-23T13:29:40.297Z,4.40
2018-01-23T13:32:07.021Z,4.50
2018-01-23T13:34:33.822Z,4.57
2018-01-23T13:37:00.583Z,4.50
2018-01-23T13:39:27.303Z,4.20
2018-01-23T13:41:54.104Z,3.67
2018-01-23T13:44:20.822Z,4.67
2018-01-23T13:46:47.592Z,4.70
2018-01-23T13:49:14.319Z,4.53
2018-01-23T13:51:41.108Z,4.10
2018-01-23T13:54:08.113Z,4.60
2018-01-23T13:56:34.888Z,4.50
2018-01-23T13:59:01.657Z,4.03
2018-01-23T14:01:28.403Z,3.80
2018-01-23T14:03:55.109Z,3.80
2018-01-23T14:06:22.593Z,4.00
2018-01-23T14:08:49.333Z,3.80
2018-01-23T14:11:16.160Z,4.00
2018-01-23T14:13:42.938Z,3.53
2018-01-23T14:16:09.896Z,3.60
2018-01-23T14:18:37.045Z,4.10
2018-01-23T14:21:03.858Z,3.93
2018-01-23T14:23:30.583Z,4.23
2018-01-23T14:25:57.516Z,3.77
2018-01-23T14:28:24.331Z,3.50
2018-01-23T14:30:51.082Z,3.53
2018-01-23T14:33:17.809Z,3.70
2018-01-23T14:35:44.485Z,4.30
2018-01-23T14:38:11.869Z,3.30
2018-01-23T14:40:38.632Z,2.80
2018-01-23T14:43:05.371Z,2.83
2018-01-23T14:45:32.270Z,3.20
2018-01-23T14:47:59.056Z,2.80
2018-01-23T14:50:25.812Z,3.20
2018-01-23T14:52:52.557Z,3.27
2018-01-23T14:55:19.342Z,3.60
2018-01-23T14:57:46.215Z,3.00
2018-01-23T15:00:14.273Z,3.30
2018-01-23T15:02:41.310Z,3.03
2018-01-23T15:05:08.172Z,3.13
2018-01-23T15:07:34.902Z,3.57
2018-01-23T15:10:01.638Z,3.60
2018-01-23T15:12:28.438Z,3.37
2018-01-23T15:14:55.190Z,3.50
2018-01-23T15:17:21.954Z,3.40
2018-01-23T15:19:48.775Z,4.03
2018-01-23T15:22:15.561Z,3.70
2018-01-23T15:24:42.382Z,3.97
2018-01-23T15:27:09.110Z,3.90
2018-01-23T15:29:35.961Z,3.70
2018-01-23T15:32:02.742Z,4.13
2018-01-23T15:34:29.532Z,4.30
2018-01-23T15:36:56.265Z,3.83
2018-01-23T15:39:22.950Z,4.73
2018-01-23T15:41:50.238Z,4.50
2018-01-23T15:44:17.058Z,4.27
2018-01-23T15:46:43.771Z,4.80
2018-01-23T15:49:10.588Z,4.73
2018-01-23T15:51:37.379Z,4.47
2018-01-23T15:54:04.107Z,4.67
2018-01-23T15:56:30.801Z,4.47
2018-01-23T15:58:57.683Z,4.70
2018-01-23T16:01:24.414Z,5.50
2018-01-23T16:03:51.236Z,5.80
2018-01-23T16:06:17.932Z,4.90
2018-01-23T16:08:44.640Z,5.40
2018-01-23T16:11:11.396Z,5.20
2018-01-23T16:13:38.090Z,5.17
2018-01-23T16:16:04.864Z,5.40
2018-01-23T16:18:31.567Z,6.20
2018-01-23T16:20:58.340Z,6.57
2018-01-23T16:23:25.065Z,5.77
2018-01-23T16:25:51.805Z,5.33
2018-01-23T16:28:18.667Z,6.53
2018-01-23T16:30:45.361Z,6.07
2018-01-23T16:33:12.074Z,5.50
2018-01-23T16:35:43.742Z,5.27
2018-01-23T16:38:10.487Z,6.13
2018-01-23T16:40:37.200Z,5.87
2018-01-23T16:43:03.945Z,6.73
2018-01-23T16:45:30.677Z,6.23
2018-01-23T16:47:57.397Z,5.97
2018-01-23T16:50:24.101Z,6.27
2018-01-23T16:52:50.802Z,6.33
2018-01-23T16:55:17.511Z,6.03
2018-01-23T16:57:44.265Z,5.90
2018-01-23T17:00:10.970Z,6.93
2018-01-23T17:02:37.655Z,6.37
2018-01-23T17:05:04.384Z,6.63
2018-01-23T17:07:31.873Z,6.80
2018-01-23T17:09:58.606Z,6.17
2018-01-23T17:12:25.363Z,6.03
2018-01-23T17:14:52.081Z,5.43
2018-01-23T17:17:19.388Z,4.67
2018-01-23T17:19:46.085Z,6.13
2018-01-23T17:22:12.840Z,5.60
2018-01-23T17:24:39.526Z,5.80
2018-01-23T17:27:06.802Z,5.57
2018-01-23T17:29:33.775Z,5.40
2018-01-23T17:32:01.630Z,6.20
2018-01-23T17:34:28.684Z,5.80
2018-01-23T17:36:55.743Z,5.80
2018-01-23T17:39:22.812Z,5.60
2018-01-23T17:41:50.767Z,4.87
2018-01-23T17:44:17.897Z,6.43
2018-01-23T17:46:44.911Z,6.60
2018-01-23T17:49:12.415Z,5.43
2018-01-23T17:51:39.888Z,5.40
2018-01-23T17:54:06.930Z,5.63
2018-01-23T17:56:33.891Z,6.30
2018-01-23T17:59:00.881Z,5.60
2018-01-23T18:01:28.223Z,5.97
2018-01-23T18:03:55.375Z,5.40
2018-01-23T18:06:22.411Z,5.40
2018-01-23T18:08:49.386Z,5.20
2018-01-23T18:11:16.374Z,5.70
2018-01-23T18:13:43.252Z,5.40
2018-01-23T18:16:10.070Z,6.33
2018-01-23T18:18:37.737Z,5.00
2018-01-23T18:21:04.517Z,5.33
2018-01-23T18:23:31.412Z,5.40
2018-01-23T18:25:58.175Z,5.63
2018-01-23T18:28:24.934Z,5.47
2018-01-23T18:30:51.696Z,5.20
2018-01-23T18:33:18.461Z,4.20
2018-01-23T18:35:45.184Z,4.43
2018-01-23T18:38:12.015Z,4.43
2018-01-23T18:40:38.790Z,4.70
2018-01-23T18:43:05.521Z,4.33
2018-01-23T18:45:32.310Z,3.93
2018-01-23T18:47:59.163Z,4.20
2018-01-23T18:50:26.420Z,4.17
2018-01-23T18:52:53.621Z,4.20
2018-01-23T18:55:20.585Z,3.70
2018-01-23T18:57:47.493Z,4.07
2018-01-23T19:00:14.381Z,3.50
2018-01-23T19:02:41.502Z,4.17
2018-01-23T19:05:08.589Z,3.67
2018-01-23T19:07:35.572Z,3.60
2018-01-23T19:10:02.525Z,4.10
2018-01-23T19:12:29.511Z,4.10
2018-01-23T19:14:57.223Z,3.60
2018-01-23T19:17:24.227Z,4.37
2018-01-23T19:19:51.211Z,3.30
2018-01-23T19:22:18.144Z,3.47
2018-01-23T19:24:44.881Z,3.23
2018-01-23T19:27:11.562Z,2.60
2018-01-23T19:29:40.290Z,3.20
2018-01-23T19:32:07.019Z,3.40
2018-01-23T19:34:33.730Z,3.90
2018-01-23T19:37:00.441Z,3.03
2018-01-23T19:39:27.318Z,2.97
2018-01-23T19:41:54.109Z,3.30
2018-01-23T19:44:20.823Z,3.00
2018-01-23T19:46:47.572Z,3.23
2018-01-23T19:49:15.195Z,3.13
2018-01-23T19:51:42.113Z,2.70
2018-01-23T19:54:08.820Z,3.10
2018-01-23T19:56:35.514Z,3.30
2018-01-23T19:59:02.213Z,3.27
2018-01-23T20:01:28.949Z,3.53
2018-01-23T20:03:55.625Z,3.23
2018-01-23T20:06:22.414Z,3.33
2018-01-23T20:08:49.162Z,3.00
2018-01-23T20:11:15.892Z,3.03
2018-01-23T20:13:42.655Z,3.93
2018-01-23T20:16:09.342Z,3.50
2018-01-23T20:18:36.036Z,3.87
2018-01-23T20:21:02.761Z,3.20
2018-01-23T20:23:29.515Z,3.60
2018-01-23T20:25:56.314Z,3.33
2018-01-23T20:28:23.028Z,2.93
2018-01-23T20:30:49.717Z,3.40
2018-01-23T20:33:16.481Z,3.00
2018-01-23T20:35:43.277Z,3.20
2018-01-23T20:38:10.035Z,3.07
2018-01-23T20:40:36.776Z,3.10
2018-01-23T20:43:03.603Z,3.20
2018-01-23T20:45:30.338Z,2.70
2018-01-23T20:47:57.071Z,2.60
2018-01-23T20:50:29.646Z,3.03
2018-01-23T20:55:42.940Z,2.47
2018-01-23T20:58:11.966Z,2.93
2018-01-23T21:00:38.857Z,3.10
2018-01-23T21:03:05.738Z,3.80
2018-01-23T21:05:32.650Z,3.37
2018-01-23T21:07:59.426Z,3.47
2018-01-23T21:10:26.169Z,2.33
2018-01-23T21:12:52.915Z,2.47
2018-01-23T21:15:19.754Z,2.50
2018-01-23T21:17:46.424Z,3.10
2018-01-23T21:20:13.133Z,3.00
2018-01-23T21:22:39.925Z,2.50
2018-01-23T21:25:06.668Z,2.83
2018-01-23T21:27:33.420Z,2.53
2018-01-23T21:30:00.116Z,2.57
2018-01-23T21:32:27.165Z,2.87
2018-01-23T21:34:53.854Z,2.80
2018-01-23T21:37:20.654Z,2.97
2018-01-23T21:39:47.383Z,3.43
2018-01-23T21:42:14.088Z,2.40
2018-01-23T21:44:40.811Z,2.60
2018-01-23T21:47:07.517Z,2.77
2018-01-23T21:49:34.285Z,3.30
2018-01-23T21:52:01.034Z,2.57
2018-01-23T21:54:27.867Z,3.00
2018-01-23T21:56:54.559Z,2.63
2018-01-23T21:59:21.269Z,3.07
2018-01-23T22:01:47.960Z,2.90
2018-01-23T22:04:14.714Z,3.23
2018-01-23T22:06:41.522Z,2.87
2018-01-23T22:09:08.242Z,2.97
2018-01-23T22:11:34.992Z,2.60
2018-01-23T22:14:01.869Z,3.10
2018-01-23T22:16:28.592Z,2.77
2018-01-23T22:18:55.309Z,2.63
2018-01-23T22:21:22.163Z,2.40
2018-01-23T22:23:49.915Z,2.60
2018-01-23T22:26:16.630Z,2.67
2018-01-23T22:28:43.377Z,3.00
2018-01-23T22:31:10.152Z,3.00
2018-01-23T22:33:36.860Z,2.67
2018-01-23T22:36:03.585Z,2.63
2018-01-23T22:38:30.579Z,2.97
2018-01-23T22:40:57.446Z,2.97
2018-01-23T22:43:24.151Z,2.70
2018-01-23T22:45:50.893Z,2.57
2018-01-23T22:48:17.790Z,2.90
2018-01-23T22:50:44.494Z,2.70
2018-01-23T22:53:11.193Z,3.00
2018-01-23T22:55:38.015Z,2.20
2018-01-23T22:58:04.847Z,2.33
2018-01-23T23:00:31.629Z,2.37
2018-01-23T23:02:58.367Z,2.20
2018-01-23T23:05:25.156Z,2.63
2018-01-23T23:07:51.882Z,2.60
2018-01-23T23:10:18.665Z,2.63
2018-01-23T23:12:45.757Z,2.30
2018-01-23T23:15:12.503Z,2.73
2018-01-23T23:17:39.212Z,2.50
2018-01-23T23:20:05.982Z,2.40
2018-01-23T23:22:32.825Z,2.20
2018-01-23T23:24:59.646Z,2.37
2018-01-23T23:27:26.374Z,1.90
2018-01-23T23:29:53.188Z,2.37
2018-01-23T23:32:19.898Z,2.17
2018-01-23T23:34:46.734Z,2.10
2018-01-23T23:37:13.529Z,2.30
2018-01-23T23:39:40.285Z,2.40
2018-01-23T23:42:08.632Z,2.10
2018-01-23T23:44:35.503Z,2.30
2018-01-23T23:47:02.367Z,3.23
2018-01-23T23:49:29.187Z,2.80
2018-01-23T23:51:55.926Z,2.00
2018-01-23T23:54:23.702Z,2.17
2018-01-23T23:56:50.895Z,2.40
2018-01-23T23:59:18.434Z,2.67
